Tiempo atmosférico en la estación meteorológica de Arcos de Jalón, Soria (863 m.)



Fecha
DESCASC
Temp. máxima en grados centígrados (hora)
DESCASC
Temp. mínima en grados centígrados (hora)
DESCASC
Temp. media en grados centígrados
DESCASC
Racha de viento máxima en m/sg (hora)
DESCASC
Velocidad máxima media en intervalos de 10 minutos(hora)
DESCASC
Precipitaciones diarias en mm
DESCASC
Precipitaciones de 00:00 a 06:00 en mm
DESCASC
Precipitaciones de 06:00 a 12:00 en mm
DESCASC
Precipitaciones de 12:00 a 18:00 en mm
DESCASC
Precipitaciones de 18:00 a 24:00 en mm
DESCASC
19-02-2019 14 (16:10) -1.5 (08:20) 6.3 6.11 (03:50) 4.44 (03:30) 0 0 0 0 0
18-02-2019 14.5 (15:50) -2.8 (06:40) 5.9 5.28 (15:30) 3.33 (00:30) 0 0 0 0 0
17-02-2019 16.2 (17:40) -4 (-00:0) 6.1 6.39 (17:20) 3.89 (17:40) 0 0 0 0 0
16-02-2019 16 (17:10) -2.6 (-00:0) 6.7 5.28 (22:00) 3.89 (22:00) 0 0 0 0 0
15-02-2019 14.8 (16:50) -2 (-00:0) 6.4 5 (17:00) 3.89 (00:30) 0 0 0 0 0
14-02-2019 14.6 (16:40) -2.5 (-00:0) 6.1 4.72 (01:30) 3.61 (02:00) 0 0 0 0 0
13-02-2019 15.1 (16:30) -3.1 (-00:0) 6 5 (01:30) 3.61 (02:10) 0 0 0 0 0
12-02-2019 12.2 (16:20) -3.4 (-00:0) 4.4 5.28 (21:30) 4.17 (22:30) 0 0 0 0 0
11-02-2019 10.1 (14:50) 0 (00:00) 5.1 8.89 (15:10) 4.72 (15:20) 0 0 0 0 0
10-02-2019 12.8 (14:30) 4.5 (00:00) 8.7 14.72 (14:20) 10 (12:30) 0.2 0 0 0 0.2
09-02-2019 15.1 (15:00) 1.1 (00:00) 8.1 10 (17:30) 6.39 (15:20) 0 0 0 0 0
08-02-2019 15.7 (16:20) -1.7 (-00:0) 7 12.22 (15:30) 8.61 (13:20) 0 0 0 0 0
07-02-2019 13.6 (16:30) 1.6 (00:00) 7.6 9.44 (14:20) 7.22 (13:50) 0 0 0 0 0
06-02-2019 17.6 (15:50) 0.7 (08:20) 9.2 7.22 (17:30) 5.83 (17:40) 0 0 0 0 0
05-02-2019 14.7 (15:20) 0.4 (02:20) 7.5 8.89 (13:40) 5.83 (14:10) 0 0 0 0 0
04-02-2019 10.3 (15:30) -3.3 (-00:0) 3.5 9.72 (14:00) 7.78 (14:00) 0 0 0 0 0
03-02-2019 3.8 (13:30) -2.2 (-00:0) 0.8 11.67 (14:20) 6.39 (10:40) 0 0 0 0 0
02-02-2019 5.1 (15:10) -0.1 (00:00) 2.5 19.44 (04:30) 12.78 (04:30) 0 0 0 0 0
01-02-2019 9.4 (01:00) 1.8 (00:00) 5.6 19.44 (00:10) 12.78 (00:10) 12 5.6 0.2 6 0.2
31-01-2019 12.4 (15:20) 4.4 (00:00) 8.4 22.78 (21:40) 15.28 (21:40) 3 2.4 0.6 0 0
30-01-2019 9.5 (16:10) 1.5 (00:00) 5.5 14.72 (00:10) 9.44 (15:10) 1.4 0 0 0 1.4
29-01-2019 10.3 (15:00) 0.1 (00:00) 5.2 19.17 (23:50) 12.78 (21:10) 0 0 0 0 0
28-01-2019 9.6 (14:10) -0.9 (-00:0) 4.4 21.39 (11:00) 13.33 (11:00) 0 0 0 0 0
27-01-2019 9.3 (14:30) -0.3 (00:00) 4.5 13.89 (14:40) 8.89 (15:10) 0 0 0 0 0
26-01-2019 16.3 (16:00) -2.8 (-00:0) 6.7 8.06 (14:20) 6.11 (14:30) 0 0 0 0 0
25-01-2019 13.5 (15:10) 1.7 (00:00) 7.6 11.11 (12:20) 6.11 (16:40) 0 0 0 0 0
24-01-2019 10.1 (15:10) 5.5 (00:00) 7.8 17.5 (00:20) 10.83 (00:20) 0 0 0 0 0

Gráficas

Temp. máximas Temp. mínimas Temp. medias Precipitaciones Rachas de viento máximas Velocidades máximas media en intervalos de 10 minutos

Datos horarios

Fecha y hora oficial Temperatura (ºC) Velocidad del viento (km/h) Dirección del viento Racha (km/h) Dirección de racha Precipitación (mm) Presión (hPa) Tendencia (hPa) Humedad (%)
2019-02-22 23:00:00 7.2 15 Sudoeste 19 Sudoeste 0 -- -- 40
2019-02-22 22:00:00 7.9 12 Sudoeste 18 Oeste 0 -- -- 38
2019-02-22 21:00:00 9 14 Oeste 17 Oeste 0 -- -- 36
2019-02-22 20:00:00 10.3 7 Sur 19 Sudoeste 0 -- -- 38
2019-02-22 19:00:00 12.7 9 Sudoeste 15 Sur 0 -- -- 31
2019-02-22 18:00:00 18.3 12 Sudoeste 30 Sudoeste 0 -- -- 21
2019-02-22 17:00:00 19.7 19 Sudoeste 27 Sur 0 -- -- 21
2019-02-22 16:00:00 20.8 11 Sudoeste 22 Sudoeste 0 -- -- 20
2019-02-22 15:00:00 19.3 6 Nordeste 22 Sudoeste 0 -- -- 27
2019-02-22 14:00:00 18.5 3 Nordeste 11 Nordeste 0 -- -- 27
2019-02-22 13:00:00 16 8 Nordeste 14 Nordeste 0 -- -- 38
2019-02-22 12:00:00 12.5 5 Nordeste 14 Nordeste 0 -- -- 50
2019-02-22 11:00:00 10.5 4 Nordeste 8 Nordeste 0 -- -- 52
2019-02-22 10:00:00 5.9 4 Nordeste 9 Sudoeste 0 -- -- 61
2019-02-22 09:00:00 2.9 10 Sudoeste 18 Sudoeste 0 -- -- 72
2019-02-22 08:00:00 0.3 13 Sudoeste 18 Sudoeste 0 -- -- 76
2019-02-22 07:00:00 1.1 12 Sudoeste 17 Sudoeste 0 -- -- 74
2019-02-22 06:00:00 1.2 12 Sudoeste 22 Sudoeste 0 -- -- 73
2019-02-22 05:00:00 1.7 14 Sudoeste 18 Sudoeste 0 -- -- 71
2019-02-22 04:00:00 2.2 12 Sudoeste 19 Sudoeste 0 -- -- 68
2019-02-22 03:00:00 2.6 15 Sudoeste 22 Oeste 0 -- -- 69
2019-02-22 02:00:00 3 15 Sudoeste 19 Sudoeste 0 -- -- 67
2019-02-22 01:00:00 3.2 13 Sudoeste 17 Sudoeste 0 -- -- 66
2019-02-22 00:00:00 4 14 Sudoeste 17 Sudoeste 0 -- -- 63
2019-02-21 23:00:00 4.6 14 Sudoeste 18 Sudoeste 0 -- -- 60
2019-02-21 22:00:00 6.4 14 Oeste 17 Oeste 0 -- -- 53
2019-02-21 21:00:00 6.7 6 Sudoeste 18 Oeste 0 -- -- 48
2019-02-21 20:00:00 7.3 10 Sudoeste 12 Sudoeste 0 -- -- 55
2019-02-21 19:00:00 12.8 2 Oeste 10 Nordeste 0 -- -- 46
2019-02-21 18:00:00 16 6 Nordeste 13 Nordeste 0 -- -- 38
2019-02-21 17:00:00 16.6 8 Nordeste 17 Este 0 -- -- 37
2019-02-21 16:00:00 16.2 7 Nordeste 14 Nordeste 0 -- -- 38
2019-02-21 15:00:00 15.8 7 Nordeste 15 Nordeste 0 -- -- 41
2019-02-21 14:00:00 14.5 8 Nordeste 14 Este 0 -- -- 46
2019-02-21 13:00:00 12.3 7 Este 13 Nordeste 0 -- -- 54
2019-02-21 12:00:00 10.3 7 Nordeste 13 Nordeste 0 -- -- 58
2019-02-21 11:00:00 7.9 6 Nordeste 10 Nordeste 0 -- -- 65
2019-02-21 10:00:00 4.9 3 Nordeste 5 Nordeste 0 -- -- 75
2019-02-21 09:00:00 1.5 0 Calma 10 Sudoeste 0 -- -- 87
2019-02-21 08:00:00 0 7 Sudoeste 14 Oeste 0 -- -- 85
2019-02-21 07:00:00 1 9 Sudoeste 14 Sudoeste 0 -- -- 85
2019-02-21 06:00:00 1.3 10 Sudoeste 20 Sudoeste 0 -- -- 84
2019-02-21 05:00:00 1.3 12 Sudoeste 17 Sudoeste 0 -- -- 83
2019-02-21 04:00:00 2 12 Sudoeste 16 Sudoeste 0 -- -- 82
2019-02-21 03:00:00 2.4 11 Sudoeste 15 Oeste 0 -- -- 82
2019-02-21 02:00:00 2.9 9 Sudoeste 18 Sudoeste 0 -- -- 78
2019-02-21 01:00:00 3.8 12 Oeste 15 Oeste 0 -- -- 76
2019-02-21 00:00:00 4.4 9 Oeste 14 Oeste 0 -- -- 73
2019-02-20 23:00:00 4.1 9 Sudoeste 13 Oeste 0 -- -- 72
2019-02-20 22:00:00 5.4 11 Oeste 13 Oeste 0 -- -- 68
2019-02-20 21:00:00 6.3 6 Oeste 9 Sudoeste 0 -- -- 64
2019-02-20 20:00:00 7.8 3 Sur 15 Oeste 0 -- -- 58
2019-02-20 19:00:00 10.1 11 Oeste 16 Sudoeste 0 -- -- 52
2019-02-20 18:00:00 14.5 13 Sudoeste 22 Sudoeste 0 -- -- 42
2019-02-20 17:00:00 15.5 13 Sudoeste 29 Sudoeste 0 -- -- 40
2019-02-20 16:00:00 15.1 10 Sur 26 Sudoeste 0 -- -- 39
2019-02-20 15:00:00 16.4 14 Sur 25 Sur 0 -- -- 39
2019-02-20 14:00:00 14.6 17 Sudoeste 23 Sudoeste 0 -- -- 44
2019-02-20 13:00:00 12.6 6 Nordeste 13 Nordeste 0 -- -- 52
2019-02-20 12:00:00 9.4 8 Nordeste 13 Nordeste 0 -- -- 60
2019-02-20 11:00:00 7.1 5 Nordeste 8 Nordeste 0 -- -- 65
2019-02-20 10:00:00 3.9 2 Nordeste 3 Nordeste 0 -- -- 74
2019-02-20 09:00:00 0.1 3 Oeste 12 Sudoeste 0 -- -- 85
2019-02-20 08:00:00 -1.8 4 Sudoeste 10 Sudoeste 0 -- -- 88
2019-02-20 07:00:00 -2.1 5 Sudoeste 8 Sudoeste 0 -- -- 86
2019-02-20 06:00:00 -0.9 0 Calma 8 Sudoeste 0 -- -- 84
2019-02-20 05:00:00 0.3 5 Sudoeste 9 Sudoeste 0 -- -- 84
2019-02-20 04:00:00 0.8 5 Sudoeste 13 Oeste 0 -- -- 84
2019-02-20 03:00:00 1.1 10 Oeste 13 Sudoeste 0 -- -- 87
2019-02-20 02:00:00 1.3 8 Sudoeste 15 Sudoeste 0 -- -- 84
2019-02-20 01:00:00 1.7 10 Sudoeste 14 Sudoeste 0 -- -- 83
2019-02-20 00:00:00 2.4 10 Sudoeste 13 Sudoeste 0 -- -- 81
2019-02-19 23:00:00 2.8 9 Sudoeste 13 Sudoeste 0 -- -- 78
2019-02-19 22:00:00 3.4 5 Sudoeste 9 Sudoeste 0 -- -- 75
2019-02-19 21:00:00 4.8 2 Sudoeste 4 Sudoeste 0 -- -- 65
2019-02-19 20:00:00 7.2 0 Calma 7 Sudoeste 0 -- -- 59
2019-02-19 19:00:00 10.6 2 Nordeste 13 Nordeste 0 -- -- 49
2019-02-19 18:00:00 12.8 9 Nordeste 17 Este 0 -- -- 44
2019-02-19 17:00:00 13.7 9 Nordeste 18 Nordeste 0 -- -- 43
2019-02-19 16:00:00 13.8 8 Nordeste 17 Nordeste 0 -- -- 43
2019-02-19 15:00:00 13.2 10 Nordeste 19 Nordeste 0 -- -- 45
2019-02-19 14:00:00 12.5 10 Nordeste 16 Nordeste 0 -- -- 48
2019-02-19 13:00:00 10.9 9 Este 15 Este 0 -- -- 54
2019-02-19 12:00:00 9.2 7 Nordeste 11 Este 0 -- -- 58
2019-02-19 11:00:00 6.3 4 Nordeste 8 Nordeste 0 -- -- 67
2019-02-19 10:00:00 3.1 2 Nordeste 5 Este 0 -- -- 79
2019-02-19 09:00:00 -1 0 Calma 4 Sudoeste 0 -- -- 86
2019-02-19 08:00:00 -1.2 2 Sudoeste 5 Norte 0 -- -- 83
2019-02-19 07:00:00 -0.3 2 Norte 5 Norte 0 -- -- 82
2019-02-19 06:00:00 0.1 2 Nordeste 4 Sur 0 -- -- 80
2019-02-19 05:00:00 1.9 2 Oeste 20 Oeste 0 -- -- 74
2019-02-19 04:00:00 2.2 13 Oeste 22 Oeste 0 -- -- 77
2019-02-19 03:00:00 1.4 10 Sudoeste 17 Sudoeste 0 -- -- 75
2019-02-19 02:00:00 0.7 9 Sudoeste 15 Sudoeste 0 -- -- 77
2019-02-19 01:00:00 1.6 10 Sudoeste 13 Sudoeste 0 -- -- 77
2019-02-19 00:00:00 1.9 9 Sudoeste 14 Sudoeste 0 -- -- 75
2019-02-18 23:00:00 2.7 9 Sudoeste 13 Sudoeste 0 -- -- 70
2019-02-18 22:00:00 3.6 10 Sudoeste 14 Sudoeste 0 -- -- 67
2019-02-18 21:00:00 4.6 9 Sudoeste 10 Sudoeste 0 -- -- 62
2019-02-18 20:00:00 6.9 0 Calma 4 Este 0 -- -- 53
2019-02-18 19:00:00 9.8 2 Sudoeste 6 Sudeste 0 -- -- 46
2019-02-18 18:00:00 13.5 5 Nordeste 12 Nordeste 0 -- -- 35
2019-02-18 17:00:00 14.4 6 Nordeste 17 Nordeste 0 -- -- 35
2019-02-18 16:00:00 14.5 9 Nordeste 19 Nordeste 0 -- -- 36
2019-02-18 15:00:00 13.8 7 Nordeste 16 Nordeste 0 -- -- 37
2019-02-18 14:00:00 12.1 10 Nordeste 16 Nordeste 0 -- -- 41
2019-02-18 13:00:00 10.3 8 Este 13 Este 0 -- -- 45
2019-02-18 12:00:00 8.5 7 Nordeste 11 Nordeste 0 -- -- 52
2019-02-18 11:00:00 5.7 5 Nordeste 9 Nordeste 0 -- -- 61
2019-02-18 10:00:00 3.8 0 Calma 6 Sur 0 -- -- 68
2019-02-18 09:00:00 -1.1 4 Sur 11 Sudoeste 0 -- -- 83
2019-02-18 08:00:00 -2.7 9 Sudoeste 12 Sudoeste 0 -- -- 82
2019-02-18 07:00:00 -2.2 8 Sudoeste 12 Sudoeste 0 -- -- 81
2019-02-18 06:00:00 -2.4 0 Calma 3 Sudoeste 0 -- -- 80
2019-02-18 05:00:00 -1.6 0 Calma 8 Sudoeste 0 -- -- 77
2019-02-18 04:00:00 -1 5 Sudoeste 8 Sudoeste 0 -- -- 78
2019-02-18 03:00:00 -0.8 2 Sudoeste 5 Sudoeste 0 -- -- 70
2019-02-18 02:00:00 0.1 0 Calma 4 Este 0 -- -- 68
2019-02-18 01:00:00 0.6 0 Calma 15 Sudoeste 0 -- -- 66
2019-02-18 00:00:00 1.1 4 Sudoeste 11 Sudoeste 0 -- -- 61
2019-02-17 23:00:00 2.9 5 Sudoeste 13 Sudoeste 0 -- -- 55
2019-02-17 22:00:00 2.8 8 Sudoeste 10 Sudoeste 0 -- -- 55
2019-02-17 21:00:00 4.1 4 Sudoeste 8 Sur 0 -- -- 51
2019-02-17 20:00:00 6.8 3 Sudoeste 8 Sudoeste 0 -- -- 43
2019-02-17 19:00:00 11.9 4 Sudoeste 21 Sudeste 0 -- -- 30
2019-02-17 18:00:00 15.7 11 Sudeste 23 Este 0 -- -- 24
2019-02-17 17:00:00 15.9 5 Nordeste 16 Nordeste 0 -- -- 24
2019-02-17 16:00:00 15.1 8 Nordeste 16 Nordeste 0 -- -- 25
2019-02-17 15:00:00 13.8 9 Nordeste 19 Este 0 -- -- 28
2019-02-17 14:00:00 13 11 Nordeste 18 Nordeste 0 -- -- 28
2019-02-17 13:00:00 11.3 5 Nordeste 14 Nordeste 0 -- -- 30
2019-02-17 12:00:00 8.6 7 Nordeste 12 Este 0 -- -- 35
2019-02-17 11:00:00 7.5 6 Nordeste 11 Nordeste 0 -- -- 39
2019-02-17 10:00:00 3.1 2 Sur 12 Sudoeste 0 -- -- 50
2019-02-17 09:00:00 -1.6 7 Sudoeste 14 Sudoeste 0 -- -- 60
2019-02-17 08:00:00 -3.7 11 Sudoeste 15 Sudoeste 0 -- -- 65
2019-02-17 07:00:00 -3.8 12 Sudoeste 14 Sudoeste 0 -- -- 66
2019-02-17 06:00:00 -3.5 10 Sudoeste 15 Sudoeste 0 -- -- 67
2019-02-17 05:00:00 -2.8 8 Sudoeste 13 Sudoeste 0 -- -- 61
2019-02-17 04:00:00 -2.6 8 Sudoeste 12 Sudoeste 0 -- -- 62
2019-02-17 03:00:00 -1.5 7 Sudoeste 14 Sudoeste 0 -- -- 58
2019-02-17 02:00:00 -0.8 8 Sudoeste 18 Sudoeste 0 -- -- 58
2019-02-17 01:00:00 0 11 Sudoeste 19 Sudoeste 0 -- -- 57
2019-02-17 00:00:00 1.7 3 Norte 17 Oeste 0 -- -- 56
2019-02-16 23:00:00 3.5 10 Sudoeste 17 Sudoeste 0 -- -- 57
2019-02-16 22:00:00 3.8 14 Oeste 19 Oeste 0 -- -- 67
2019-02-16 21:00:00 4.3 10 Sudoeste 13 Sudoeste 0 -- -- 65
2019-02-16 20:00:00 6.2 3 Sur 6 Sudoeste 0 -- -- 58
2019-02-16 19:00:00 11.3 0 Calma 14 Nordeste 0 -- -- 45
2019-02-16 18:00:00 15.3 7 Nordeste 12 Norte 0 -- -- 34
2019-02-16 17:00:00 15.9 7 Nordeste 14 Nordeste 0 -- -- 33
2019-02-16 16:00:00 14.8 6 Nordeste 14 Nordeste 0 -- -- 43
2019-02-16 15:00:00 13.4 7 Este 16 Nordeste 0 -- -- 49
2019-02-16 14:00:00 12.1 10 Nordeste 15 Nordeste 0 -- -- 52
2019-02-16 13:00:00 10.4 4 Nordeste 13 Este 0 -- -- 57
2019-02-16 12:00:00 8.1 5 Nordeste 11 Nordeste 0 -- -- 62
2019-02-16 11:00:00 5.8 4 Nordeste 9 Nordeste 0 -- -- 69
2019-02-16 10:00:00 3.2 0 Calma 13 Sudoeste 0 -- -- 85
2019-02-16 09:00:00 -0.9 9 Sudoeste 13 Sudoeste 0 -- -- 93
2019-02-16 08:00:00 -2.6 8 Sudoeste 11 Sudoeste 0 -- -- 90
2019-02-16 07:00:00 -2.2 7 Sudoeste 12 Sudoeste 0 -- -- 89
2019-02-16 06:00:00 -1.6 9 Sudoeste 12 Sudoeste 0 -- -- 90
2019-02-16 05:00:00 -1.3 9 Sudoeste 12 Sudoeste 0 -- -- 88
2019-02-16 04:00:00 -0.8 10 Sudoeste 13 Sudoeste 0 -- -- 87
2019-02-16 03:00:00 -0.3 8 Sudoeste 13 Sudoeste 0 -- -- 84
2019-02-16 02:00:00 -0.7 3 Sur 12 Sudoeste 0 -- -- 82
2019-02-16 01:00:00 -0.3 8 Sudoeste 9 Sudoeste 0 -- -- 83
2019-02-16 00:00:00 -0.1 2 Sudoeste 5 Sudoeste 0 -- -- 79
2019-02-15 23:00:00 0.6 2 Sudoeste 3 Sudoeste 0 -- -- 77
2019-02-15 22:00:00 1.8 2 Sur 4 Sur 0 -- -- 72
2019-02-15 21:00:00 3.5 0 Calma 4 Sudoeste 0 -- -- 65
2019-02-15 20:00:00 6.3 0 Calma 2 Sudoeste 0 -- -- 56
2019-02-15 19:00:00 10.9 2 Nordeste 10 Nordeste 0 -- -- 44
2019-02-15 18:00:00 13.7 8 Nordeste 17 Nordeste 0 -- -- 38
2019-02-15 17:00:00 14.7 10 Nordeste 18 Nordeste 0 -- -- 36
2019-02-15 16:00:00 14.4 8 Norte 17 Nordeste 0 -- -- 39
2019-02-15 15:00:00 13.6 5 Nordeste 18 Nordeste 0 -- -- 44
2019-02-15 14:00:00 12.5 9 Nordeste 18 Este 0 -- -- 47
2019-02-15 13:00:00 11.1 7 Nordeste 13 Este 0 -- -- 52
2019-02-15 12:00:00 9.2 5 Nordeste 10 Nordeste 0 -- -- 58
2019-02-15 11:00:00 6.7 4 Nordeste 8 Este 0 -- -- 64
2019-02-15 10:00:00 3.6 3 Nordeste 7 Sur 0 -- -- 74
2019-02-15 09:00:00 -0.2 2 Sur 12 Sudoeste 0 -- -- 87
2019-02-15 08:00:00 -1.6 11 Sudoeste 13 Sudoeste 0 -- -- 87
2019-02-15 07:00:00 -1.8 9 Sudoeste 12 Sudoeste 0 -- -- 87
2019-02-15 06:00:00 -1.8 6 Sudoeste 14 Oeste 0 -- -- 85
2019-02-15 05:00:00 -1.8 8 Sudoeste 11 Sudoeste 0 -- -- 84
2019-02-15 04:00:00 -1.1 8 Sudoeste 10 Sudoeste 0 -- -- 81
2019-02-15 03:00:00 0.2 6 Sudoeste 12 Sudoeste 0 -- -- 75
2019-02-15 02:00:00 1.5 9 Oeste 17 Oeste 0 -- -- 73
2019-02-15 01:00:00 1.4 11 Sudoeste 17 Sudoeste 0 -- -- 74
2019-02-15 00:00:00 1.6 10 Sudoeste 13 Sudoeste 0 -- -- 74
2019-02-14 23:00:00 2.1 11 Sudoeste 14 Sudoeste 0 -- -- 71
2019-02-14 22:00:00 3.2 9 Sudoeste 14 Sudoeste 0 -- -- 63
2019-02-14 21:00:00 3.8 6 Sudoeste 13 Sudoeste 0 -- -- 58
2019-02-14 20:00:00 5.5 10 Sudoeste 14 Sudoeste 0 -- -- 51
2019-02-14 19:00:00 10.5 0 Calma 10 Nordeste 0 -- -- 38
2019-02-14 18:00:00 14 5 Nordeste 12 Norte 0 -- -- 26
2019-02-14 17:00:00 14.6 6 Nordeste 15 Nordeste 0 -- -- 30
2019-02-14 16:00:00 14 8 Nordeste 15 Nordeste 0 -- -- 33
2019-02-14 15:00:00 13.1 6 Nordeste 15 Este 0 -- -- 36
2019-02-14 14:00:00 11.3 9 Nordeste 15 Nordeste 0 -- -- 45
2019-02-14 13:00:00 9.5 8 Nordeste 14 Nordeste 0 -- -- 57
2019-02-14 12:00:00 8.1 6 Nordeste 12 Este 0 -- -- 64
2019-02-14 11:00:00 6.1 6 Este 9 Nordeste 0 -- -- 72
2019-02-14 10:00:00 2.8 2 Sur 13 Sudoeste 0 -- -- 79
2019-02-14 09:00:00 -0.7 9 Sudoeste 12 Sudoeste 0 -- -- 91
2019-02-14 08:00:00 -2.3 6 Sudoeste 13 Sudoeste 0 -- -- 90
2019-02-14 07:00:00 -1.6 6 Sudoeste 12 Sudoeste 0 -- -- 90
2019-02-14 06:00:00 -1.1 10 Sudoeste 14 Sudoeste 0 -- -- 90
2019-02-14 05:00:00 -1.1 8 Sudoeste 12 Sudoeste 0 -- -- 89
2019-02-14 04:00:00 -0.7 9 Sudoeste 15 Sudoeste 0 -- -- 88
2019-02-14 03:00:00 0 10 Sudoeste 14 Sudoeste 0 -- -- 86
2019-02-14 02:00:00 0.9 13 Sudoeste 17 Sudoeste 0 -- -- 86
2019-02-14 01:00:00 1.9 10 Sudoeste 13 Sudoeste 0 -- -- 84
2019-02-14 00:00:00 2.1 11 Sudoeste 13 Sudoeste 0 -- -- 82
2019-02-13 23:00:00 2.7 11 Sudoeste 14 Sudoeste 0 -- -- 82
2019-02-13 22:00:00 3.1 3 Sudoeste 5 Sudoeste 0 -- -- 76
2019-02-13 21:00:00 4.9 2 Sudoeste 7 Sudoeste 0 -- -- 68
2019-02-13 20:00:00 8.4 0 Calma 8 Norte 0 -- -- 57
2019-02-13 19:00:00 11.3 0 Calma 8 Nordeste 0 -- -- 51
2019-02-13 18:00:00 14.4 6 Nordeste 12 Nordeste 0 -- -- 43
2019-02-13 17:00:00 15 8 Nordeste 14 Nordeste 0 -- -- 42
2019-02-13 16:00:00 14.8 7 Nordeste 16 Este 0 -- -- 44
2019-02-13 15:00:00 14.3 9 Nordeste 17 Nordeste 0 -- -- 41
2019-02-13 14:00:00 13 8 Nordeste 13 Nordeste 0 -- -- 45
2019-02-13 13:00:00 10.7 8 Nordeste 15 Este 0 -- -- 54
2019-02-13 12:00:00 9.6 5 Nordeste 10 Nordeste 0 -- -- 58
2019-02-13 11:00:00 7.4 2 Nordeste 4 Nordeste 0 -- -- 65
2019-02-13 10:00:00 4 0 Calma 3 Sudoeste 0 -- -- 77
2019-02-13 09:00:00 -1 0 Calma 2 Nordeste 0 -- -- 89
2019-02-13 08:00:00 -2.9 2 Sudoeste 3 Sudoeste 0 -- -- 88
2019-02-13 07:00:00 -2.6 0 Calma 8 Sudoeste 0 -- -- 87
2019-02-13 06:00:00 -2.2 2 Sudoeste 6 Sudoeste 0 -- -- 85
2019-02-13 05:00:00 -1.2 0 Calma 5 Norte 0 -- -- 81
2019-02-13 04:00:00 -0.6 0 Calma 13 Oeste 0 -- -- 78
2019-02-13 03:00:00 1.1 7 Oeste 14 Oeste 0 -- -- 74
2019-02-13 02:00:00 1.2 12 Oeste 18 Oeste 0 -- -- 73
2019-02-13 01:00:00 1.9 12 Oeste 15 Oeste 0 -- -- 73
2019-02-13 00:00:00 1.6 12 Sudoeste 16 Sudoeste 0 -- -- 74
2019-02-12 23:00:00 2.4 12 Sudoeste 18 Oeste 0 -- -- 73
2019-02-12 22:00:00 2.6 13 Sudoeste 19 Sudoeste 0 -- -- 76
2019-02-12 21:00:00 3.6 12 Sudoeste 16 Sudoeste 0 -- -- 72
2019-02-12 20:00:00 3.7 9 Sudoeste 13 Sudoeste 0 -- -- 70
2019-02-12 19:00:00 7.6 0 Calma 5 Nordeste 0 -- -- 58
2019-02-12 18:00:00 11.1 3 Nordeste 10 Nordeste 0 -- -- 49
2019-02-12 17:00:00 12.2 6 Nordeste 15 Este 0 -- -- 47
2019-02-12 16:00:00 12.1 7 Nordeste 14 Este 0 -- -- 48
2019-02-12 15:00:00 11.5 7 Este 13 Nordeste 0 -- -- 49
2019-02-12 14:00:00 10.5 5 Este 14 Nordeste 0 -- -- 53
2019-02-12 13:00:00 8.6 5 Nordeste 14 Este 0 -- -- 59
2019-02-12 12:00:00 6.7 5 Nordeste 12 Nordeste 0 -- -- 64
2019-02-12 11:00:00 5 6 Nordeste 12 Nordeste 0 -- -- 69
2019-02-12 10:00:00 2.2 0 Calma 5 Sudoeste 0 -- -- 85
2019-02-12 09:00:00 -1.8 4 Sur 12 Sudoeste 0 -- -- 90
2019-02-12 08:00:00 -3.3 8 Sudoeste 12 Oeste 0 -- -- 89
2019-02-12 07:00:00 -2.8 6 Sudoeste 10 Sudoeste 0 -- -- 90
2019-02-12 06:00:00 -2.7 6 Sudoeste 13 Sudoeste 0 -- -- 89
2019-02-12 05:00:00 -2.3 8 Sudoeste 12 Sudoeste 0 -- -- 90
2019-02-12 04:00:00 -2.4 7 Sudoeste 12 Sudoeste 0 -- -- 90
2019-02-12 03:00:00 -1.9 8 Sudoeste 13 Oeste 0 -- -- 89
2019-02-12 02:00:00 -1.2 9 Oeste 12 Sudoeste 0 -- -- 89
2019-02-12 01:00:00 -0.8 5 Sudoeste 10 Sudoeste 0 -- -- 86
2019-02-12 00:00:00 0.1 5 Oeste 10 Sudoeste 0 -- -- 85
2019-02-11 23:00:00 0.9 3 Oeste 10 Noroeste 0 -- -- 81
2019-02-11 22:00:00 1.6 0 Calma 4 Norte 0 -- -- 78
2019-02-11 21:00:00 3.3 3 Norte 12 Norte 0 -- -- 71
2019-02-11 20:00:00 4.8 5 Noroeste 18 Norte 0 -- -- 64
2019-02-11 19:00:00 6.1 8 Norte 26 Norte 0 -- -- 60
2019-02-11 18:00:00 8 13 Norte 26 Norte 0 -- -- 53
2019-02-11 17:00:00 9.1 13 Norte 28 Noroeste 0 -- -- 50
2019-02-11 16:00:00 9.7 15 Noroeste 32 Norte 0 -- -- 49
2019-02-11 15:00:00 10.1 15 Noroeste 30 Noroeste 0 -- -- 49
2019-02-11 14:00:00 9.8 15 Noroeste 28 Noroeste 0 -- -- 49
2019-02-11 13:00:00 9.2 10 Norte 29 Norte 0 -- -- 54
2019-02-11 12:00:00 8.3 9 Noroeste 19 Nordeste 0 -- -- 56
2019-02-11 11:00:00 6.6 8 Norte 15 Norte 0 -- -- 61
2019-02-11 10:00:00 4.7 3 Sur 5 Sudoeste 0 -- -- 75
2019-02-11 09:00:00 1.7 2 Sur 5 Sudoeste 0 -- -- 87
2019-02-11 08:00:00 2 0 Calma 5 Nordeste 0 -- -- 82
2019-02-11 07:00:00 3.9 2 Norte 10 Norte 0 -- -- 78
2019-02-11 06:00:00 4.2 8 Norte 17 Nordeste 0 -- -- 79
2019-02-11 05:00:00 4.7 6 Nordeste 11 Norte 0 -- -- 84
2019-02-11 04:00:00 4.8 5 Nordeste 10 Norte 0 -- -- 83
2019-02-11 03:00:00 5 4 Nordeste 9 Nordeste 0 -- -- 87
2019-02-11 02:00:00 5.7 5 Nordeste 12 Sudoeste 0 -- -- 86
2019-02-11 01:00:00 6.8 9 Sudoeste 17 Sudoeste 0 -- -- 88
2019-02-11 00:00:00 8.1 11 Sudoeste 22 Sudoeste 0.2 -- -- 89
2019-02-10 23:00:00 8.2 16 Sudoeste 24 Sudoeste 0 -- -- 85
2019-02-10 22:00:00 7.8 16 Sudoeste 33 Sudoeste 0 -- -- 83
2019-02-10 21:00:00 8.7 18 Sudoeste 27 Sudoeste 0 -- -- 82
2019-02-10 20:00:00 8.9 20 Sudoeste 31 Sur 0 -- -- 80
2019-02-10 19:00:00 9.7 22 Sur 39 Sudoeste 0 -- -- 75
2019-02-10 18:00:00 10.1 23 Sudoeste 43 Sur 0 -- -- 73
2019-02-10 17:00:00 10.9 33 Sudoeste 47 Sudoeste 0 -- -- 69
2019-02-10 16:00:00 12 27 Sudoeste 46 Sudoeste 0 -- -- 63
2019-02-10 15:00:00 12.3 31 Sudoeste 53 Sudoeste 0 -- -- 60
2019-02-10 14:00:00 11.8 28 Sudoeste 49 Sudoeste 0 -- -- 60
2019-02-10 13:00:00 11.6 31 Sur 52 Sudoeste 0 -- -- 61
2019-02-10 12:00:00 8.9 25 Sur 46 Sur 0 -- -- 70
2019-02-10 11:00:00 7.6 29 Sur 43 Sur 0 -- -- 73
2019-02-10 10:00:00 6.4 16 Sur 33 Sur 0 -- -- 78
2019-02-10 09:00:00 5.6 22 Sur 44 Sur 0 -- -- 81
2019-02-10 08:00:00 4.5 16 Sur 31 Sur 0 -- -- 83
2019-02-10 07:00:00 5 15 Sudoeste 30 Sudoeste 0 -- -- 82
2019-02-10 06:00:00 5.3 18 Sudoeste 32 Sudoeste 0 -- -- 80
2019-02-10 05:00:00 5.3 12 Sudoeste 28 Sudoeste 0 -- -- 80
2019-02-10 04:00:00 6 18 Sudoeste 39 Sur 0 -- -- 81
2019-02-10 03:00:00 6.4 19 Sudoeste 30 Sudoeste 0 -- -- 79
2019-02-10 02:00:00 5.1 11 Sudoeste 21 Sudoeste 0 -- -- 81
2019-02-10 01:00:00 5.4 13 Sudoeste 34 Sudoeste 0 -- -- 77
2019-02-10 00:00:00 6.8 21 Sudoeste 33 Sudoeste 0 -- -- 72
2019-02-09 23:00:00 6.3 18 Sudoeste 27 Sudoeste 0 -- -- 72
2019-02-09 22:00:00 6.7 14 Sudoeste 31 Sudoeste 0 -- -- 66
2019-02-09 21:00:00 7 15 Sudoeste 29 Sudoeste 0 -- -- 65
2019-02-09 20:00:00 7.8 14 Sudoeste 26 Sur 0 -- -- 61
2019-02-09 19:00:00 10.2 13 Sudoeste 32 Sur 0 -- -- 54
2019-02-09 18:00:00 12.1 22 Sur 36 Sur 0 -- -- 48
2019-02-09 17:00:00 14 19 Sur 32 Sur 0 -- -- 43
2019-02-09 16:00:00 14.6 21 Sur 32 Sudoeste 0 -- -- 43
2019-02-09 15:00:00 15.1 19 Sur 31 Sur 0 -- -- 39
2019-02-09 14:00:00 14 15 Sudoeste 28 Sudoeste 0 -- -- 49
2019-02-09 13:00:00 12.6 12 Sudoeste 23 Sur 0 -- -- 55
2019-02-09 12:00:00 10.8 9 Sudoeste 20 Sudoeste 0 -- -- 63
2019-02-09 11:00:00 9.1 8 Sudoeste 13 Sudoeste 0 -- -- 70
2019-02-09 10:00:00 6.3 0 Calma 6 Sudoeste 0 -- -- 80
2019-02-09 09:00:00 2.6 3 Sudoeste 10 Sudoeste 0 -- -- 92
2019-02-09 08:00:00 1.2 4 Sudoeste 6 Sudoeste 0 -- -- 88
2019-02-09 07:00:00 2.8 3 Sudoeste 10 Oeste 0 -- -- 86
2019-02-09 06:00:00 3 7 Sudoeste 12 Sudoeste 0 -- -- 87
2019-02-09 05:00:00 2.4 8 Sudoeste 13 Sudoeste 0 -- -- 85
2019-02-09 04:00:00 2.7 5 Sudoeste 12 Oeste 0 -- -- 81
2019-02-09 03:00:00 2.9 7 Sudoeste 11 Oeste 0 -- -- 80
2019-02-09 02:00:00 3.9 8 Sudoeste 23 Sudoeste 0 -- -- 75
2019-02-09 01:00:00 3.7 11 Sudoeste 18 Sudoeste 0 -- -- 74
2019-02-09 00:00:00 4.6 9 Sudoeste 17 Sudoeste 0 -- -- 71
2019-02-08 23:00:00 4.9 5 Sur 11 Oeste 0 -- -- 70
2019-02-08 22:00:00 6 4 Sur 22 Sudoeste 0 -- -- 66
2019-02-08 21:00:00 7.7 17 Sudoeste 26 Oeste 0 -- -- 61
2019-02-08 20:00:00 8.9 14 Sudoeste 32 Sudoeste 0 -- -- 55
2019-02-08 19:00:00 10.7 21 Sudoeste 32 Sudoeste 0 -- -- 48
2019-02-08 18:00:00 13.8 19 Sudoeste 43 Sur 0 -- -- 39
2019-02-08 17:00:00 15 26 Sur 36 Sur 0 -- -- 39
2019-02-08 16:00:00 15.6 26 Sur 44 Sudoeste 0 -- -- 37
2019-02-08 15:00:00 15.5 21 Sudoeste 41 Sur 0 -- -- 40
2019-02-08 14:00:00 14.7 23 Sudoeste 42 Sudoeste 0 -- -- 43
2019-02-08 13:00:00 13.6 26 Sudoeste 40 Sudoeste 0 -- -- 46
2019-02-08 12:00:00 11.9 22 Sudoeste 38 Sudoeste 0 -- -- 53
2019-02-08 11:00:00 6 4 Nordeste 9 Nordeste 0 -- -- 77
2019-02-08 10:00:00 2.9 5 Nordeste 8 Norte 0 -- -- 85
2019-02-08 09:00:00 -0.7 3 Nordeste 7 Nordeste 0 -- -- 92
2019-02-08 08:00:00 -1.4 2 Norte 5 Sudoeste 0 -- -- 90
2019-02-08 07:00:00 -0.7 0 Calma 13 Oeste 0 -- -- 89
2019-02-08 06:00:00 0.2 12 Oeste 21 Oeste 0 -- -- 89
2019-02-08 05:00:00 1.1 13 Sudoeste 18 Sudoeste 0 -- -- 87
2019-02-08 04:00:00 1.3 13 Sudoeste 18 Sudoeste 0 -- -- 87
2019-02-08 03:00:00 1.5 12 Sudoeste 17 Sudoeste 0 -- -- 84
2019-02-08 02:00:00 2.1 13 Sudoeste 20 Sudoeste 0 -- -- 83
2019-02-08 01:00:00 1.5 8 Sudoeste 15 Sudoeste 0 -- -- 85
2019-02-08 00:00:00 1.7 9 Sudoeste 17 Sudoeste 0 -- -- 83
2019-02-07 23:00:00 2.4 13 Sudoeste 17 Oeste 0 -- -- 82
2019-02-07 22:00:00 3 12 Sudoeste 14 Sudoeste 0 -- -- 79
2019-02-07 21:00:00 4.1 8 Sudoeste 17 Oeste 0 -- -- 77
2019-02-07 20:00:00 4.8 2 Sudoeste 6 Sudoeste 0 -- -- 70
2019-02-07 19:00:00 8.1 3 Sudoeste 14 Oeste 0 -- -- 61
2019-02-07 18:00:00 11.1 10 Oeste 21 Oeste 0 -- -- 54
2019-02-07 17:00:00 12.4 13 Noroeste 26 Noroeste 0 -- -- 51
2019-02-07 16:00:00 13.3 7 Sudoeste 29 Sudoeste 0 -- -- 48
2019-02-07 15:00:00 12.6 22 Sudoeste 34 Sudoeste 0 -- -- 51
2019-02-07 14:00:00 12.1 19 Sudoeste -- -- -- -- -- 54
2019-02-07 13:00:00 11.6 19 Oeste 31 Oeste 0 -- -- 55
2019-02-07 12:00:00 11.1 16 Sudoeste 27 Sudoeste 0 -- -- 52
2019-02-07 11:00:00 9.1 19 Sudoeste 27 Sudoeste 0 -- -- 50
2019-02-07 10:00:00 6.8 18 Sudoeste 24 Sudoeste 0 -- -- 63
2019-02-07 09:00:00 3.8 11 Sudoeste 21 Sudoeste 0 -- -- 74
2019-02-07 08:00:00 4 12 Sudoeste 21 Sudoeste 0 -- -- 71
2019-02-07 07:00:00 3.9 10 Sudoeste 19 Sudoeste 0 -- -- 74
2019-02-07 06:00:00 3.7 10 Sudoeste 15 Sudoeste 0 -- -- 80
2019-02-07 05:00:00 4.5 12 Oeste 18 Oeste 0 -- -- 81
2019-02-07 04:00:00 4.8 14 Oeste 18 Sudoeste 0 -- -- 81
2019-02-07 03:00:00 4.2 15 Oeste 18 Oeste 0 -- -- 81
2019-02-07 02:00:00 4.8 14 Oeste 21 Sudoeste 0 -- -- 80
2019-02-07 01:00:00 5.3 16 Oeste 18 Oeste 0 -- -- 80
2019-02-07 00:00:00 5.3 9 Sur 12 Sudoeste 0 -- -- 80
2019-02-06 23:00:00 5.6 4 Sudoeste 14 Sudoeste 0 -- -- 78
2019-02-06 22:00:00 5.9 12 Oeste 15 Oeste 0 -- -- 77
2019-02-06 21:00:00 8 12 Oeste 22 Oeste 0 -- -- 68
2019-02-06 20:00:00 9.4 17 Oeste 24 Sudoeste 0 -- -- 63
2019-02-06 19:00:00 10.6 12 Sudoeste 22 Sudoeste 0 -- -- 55
2019-02-06 18:00:00 14.7 18 Sudoeste 26 Sudoeste 0 -- -- 41
2019-02-06 17:00:00 16.9 19 Sudoeste 24 Sudoeste 0 -- -- 37
2019-02-06 16:00:00 17.4 15 Sudoeste 21 Sudoeste 0 -- -- 39
2019-02-06 15:00:00 16.9 11 Sudoeste 23 Sudoeste 0 -- -- 38
2019-02-06 14:00:00 15.6 12 Sudoeste 21 Sudoeste 0 -- -- 42
2019-02-06 13:00:00 15 10 Sudoeste 20 Sudoeste 0 -- -- 49
2019-02-06 12:00:00 13.3 9 Sudoeste 18 Sudoeste 0 -- -- 56
2019-02-06 11:00:00 10.3 5 Sudoeste 11 Sur 0 -- -- 70
2019-02-06 10:00:00 5.2 4 Sur 17 Sudoeste 0 -- -- 84
2019-02-06 09:00:00 1.5 10 Sudoeste 15 Sudoeste 0 -- -- 89
2019-02-06 08:00:00 0.9 10 Sudoeste 13 Sudoeste 0 -- -- 90
2019-02-06 07:00:00 1.1 8 Sudoeste 15 Sudoeste 0 -- -- 90
2019-02-06 06:00:00 1.1 10 Sudoeste 13 Sudoeste 0 -- -- 91
2019-02-06 05:00:00 1.5 7 Sudoeste 17 Sudoeste 0 -- -- 88
2019-02-06 04:00:00 2.1 14 Oeste 18 Oeste 0 -- -- 88
2019-02-06 03:00:00 2.1 9 Sudoeste 15 Sudoeste 0 -- -- 89
2019-02-06 02:00:00 2.2 12 Sudoeste 18 Sudoeste 0 -- -- 88
2019-02-06 01:00:00 2.6 11 Sudoeste 15 Sudoeste 0 -- -- 86
2019-02-06 00:00:00 3.1 9 Sudoeste 15 Sudoeste 0 -- -- 84
2019-02-05 23:00:00 3.5 8 Sudoeste 12 Sudoeste 0 -- -- 83
2019-02-05 22:00:00 4.3 6 Sudoeste 10 Sudoeste 0 -- -- 78
2019-02-05 21:00:00 5.7 6 Sudoeste 9 Sudoeste 0 -- -- 77
2019-02-05 20:00:00 7 0 Calma 15 Sudoeste 0 -- -- 70
2019-02-05 19:00:00 9.6 10 Oeste 14 Sudoeste 0 -- -- 63
2019-02-05 18:00:00 13.2 9 Oeste 19 Oeste 0 -- -- 52
2019-02-05 17:00:00 14.3 11 Oeste 23 Oeste 0 -- -- 50
2019-02-05 16:00:00 14.6 14 Oeste 25 Oeste 0 -- -- 48
2019-02-05 15:00:00 14.3 15 Oeste 30 Oeste 0 -- -- 49
2019-02-05 14:00:00 14.3 19 Oeste 32 Oeste 0 -- -- 51
2019-02-05 13:00:00 12.6 19 Oeste 29 Oeste 0 -- -- 57
2019-02-05 12:00:00 11.6 16 Sudoeste 22 Sudoeste 0 -- -- 54
2019-02-05 11:00:00 9.4 10 Sudoeste 17 Sudoeste 0 -- -- 53
2019-02-05 10:00:00 6 10 Sudoeste 15 Sudoeste 0 -- -- 60
2019-02-05 09:00:00 2.8 9 Sudoeste 13 Sudoeste 0 -- -- 71
2019-02-05 08:00:00 2.2 2 Norte 9 Oeste 0 -- -- 72
2019-02-05 07:00:00 2.7 5 Oeste 10 Oeste 0 -- -- 72
2019-02-05 06:00:00 3.3 9 Oeste 16 Oeste 0 -- -- 67
2019-02-05 05:00:00 3.5 11 Oeste 19 Oeste 0 -- -- 66
2019-02-05 04:00:00 3.4 12 Oeste 21 Oeste 0 -- -- 67
2019-02-05 03:00:00 2.1 12 Sudoeste 17 Sudoeste 0 -- -- 73
2019-02-05 02:00:00 0.8 5 Sudoeste 12 Sudoeste 0 -- -- 73
2019-02-05 01:00:00 1.4 8 Sudoeste 15 Oeste 0 -- -- 71
2019-02-05 00:00:00 1.7 9 Sudoeste 11 Sudoeste 0 -- -- 71
2019-02-04 23:00:00 2.3 6 Oeste 11 Sudoeste 0 -- -- 65
2019-02-04 22:00:00 2.9 6 Sudoeste 12 Oeste 0 -- -- 62
2019-02-04 21:00:00 4 6 Oeste 12 Oeste 0 -- -- 59
2019-02-04 20:00:00 4.3 0 Calma 8 Oeste 0 -- -- 57
2019-02-04 19:00:00 5.1 4 Sudoeste 21 Sudoeste 0 -- -- 55
2019-02-04 18:00:00 8.3 18 Sudoeste 30 Sudoeste 0 -- -- 46
2019-02-04 17:00:00 9 20 Sudoeste 28 Sudoeste 0 -- -- 49
2019-02-04 16:00:00 9.4 20 Sudoeste 35 Sudoeste 0 -- -- 49
2019-02-04 15:00:00 10.1 19 Sudoeste 32 Sudoeste 0 -- -- 46
2019-02-04 14:00:00 8.6 28 Sudoeste 35 Sudoeste 0 -- -- 49
2019-02-04 13:00:00 8.1 21 Sudoeste 26 Sudoeste 0 -- -- 51
2019-02-04 12:00:00 6.5 12 Sudoeste 26 Sudoeste 0 -- -- 55
2019-02-04 11:00:00 4 15 Sudoeste 25 Sudoeste 0 -- -- 62
2019-02-04 10:00:00 2.1 16 Sudoeste 26 Sudoeste 0 -- -- 67
2019-02-04 09:00:00 -1.2 10 Sur 23 Sudoeste 0 -- -- 82
2019-02-04 08:00:00 -2.5 5 Sudoeste 9 Sudoeste 0 -- -- 82
2019-02-04 07:00:00 -1.9 4 Oeste 10 Sudoeste 0 -- -- 79
2019-02-04 06:00:00 -2.8 0 Calma 9 Sudoeste 0 -- -- 83
2019-02-04 05:00:00 -3.1 0 Calma 13 Sudoeste 0 -- -- 85
2019-02-04 04:00:00 -2.9 3 Oeste 27 Sudoeste 0 -- -- 84
2019-02-04 03:00:00 -2.7 10 Sudoeste 17 Oeste 0 -- -- 85
2019-02-04 02:00:00 -2.7 4 Sudoeste 15 Sudoeste 0 -- -- 84
2019-02-04 01:00:00 -2.2 6 Sudoeste 12 Oeste 0 -- -- 84
2019-02-04 00:00:00 -1.8 3 Sudoeste 9 Oeste 0 -- -- 83
2019-02-03 23:00:00 -1.5 7 Oeste 12 Oeste 0 -- -- 83
2019-02-03 22:00:00 -0.6 8 Oeste 14 Oeste 0 -- -- 77
2019-02-03 21:00:00 -0.6 4 Noroeste 12 Noroeste 0 -- -- 75
2019-02-03 20:00:00 0.9 7 Noroeste 20 Norte 0 -- -- 69
2019-02-03 19:00:00 2.1 10 Norte 24 Noroeste 0 -- -- 63
2019-02-03 18:00:00 3.5 10 Noroeste 24 Norte 0 -- -- 57
2019-02-03 17:00:00 3.7 7 Norte 32 Noroeste 0 -- -- 60
2019-02-03 16:00:00 3.5 12 Noroeste 35 Norte 0 -- -- 58
2019-02-03 15:00:00 3.4 14 Noroeste 42 Noroeste 0 -- -- 57
2019-02-03 14:00:00 3.6 13 Noroeste 38 Norte 0 -- -- 57
2019-02-03 13:00:00 2.9 13 Oeste 32 Oeste 0 -- -- 67
2019-02-03 12:00:00 1.9 16 Oeste 30 Oeste 0 -- -- 68
2019-02-03 11:00:00 1.7 19 Oeste 39 Oeste 0 -- -- 65
2019-02-03 10:00:00 0.4 11 Oeste 27 Oeste 0 -- -- 71
2019-02-03 09:00:00 -0.4 17 Oeste 28 Oeste 0 -- -- 70
2019-02-03 08:00:00 -2 3 Sudoeste 24 Oeste 0 -- -- 74
2019-02-03 07:00:00 -1 13 Oeste 30 Oeste 0 -- -- 73
2019-02-03 06:00:00 -1.3 10 Oeste 27 Oeste 0 -- -- 73
2019-02-03 05:00:00 -1.1 14 Oeste 29 Oeste 0 -- -- 75
2019-02-03 04:00:00 -0.7 17 Oeste 28 Oeste 0 -- -- 81
2019-02-03 03:00:00 -0.2 13 Oeste 32 Oeste 0 -- -- 76
2019-02-03 02:00:00 -0.5 17 Oeste 31 Oeste 0 -- -- 75
2019-02-03 01:00:00 -0.4 14 Oeste 31 Sudoeste 0 -- -- 77
2019-02-03 00:00:00 -0.1 16 Sudoeste 37 Oeste 0 -- -- 78
2019-02-02 23:00:00 0.2 20 Oeste 44 Sudoeste 0 -- -- 76
2019-02-02 22:00:00 0.1 26 Oeste 42 Sudoeste 0 -- -- 77
2019-02-02 21:00:00 0.1 26 Sudoeste 40 Sudoeste 0 -- -- 75
2019-02-02 20:00:00 0.1 10 Oeste 34 Oeste 0 -- -- 73
2019-02-02 19:00:00 1 24 Oeste 38 Oeste 0 -- -- 66
2019-02-02 18:00:00 2.4 13 Oeste 30 Oeste 0 -- -- 66
2019-02-02 17:00:00 3.7 18 Oeste 34 Oeste 0 -- -- 58
2019-02-02 16:00:00 3.9 20 Oeste 40 Oeste 0 -- -- 48
2019-02-02 15:00:00 4.8 23 Oeste 47 Sudoeste 0 -- -- 59
2019-02-02 14:00:00 4.3 36 Oeste 57 Oeste 0 -- -- 61
2019-02-02 13:00:00 3.9 36 Oeste 54 Oeste 0 -- -- 66
2019-02-02 12:00:00 2.9 21 Sudoeste 53 Sudoeste 0 -- -- 71
2019-02-02 11:00:00 2.8 30 Oeste 53 Sudoeste 0 -- -- 71
2019-02-02 10:00:00 2.2 28 Sudoeste 45 Sudoeste 0 -- -- 76
2019-02-02 09:00:00 1.6 29 Sudoeste 40 Sudoeste 0 -- -- 77
2019-02-02 08:00:00 1.2 19 Sudoeste 46 Sudoeste 0 -- -- 80
2019-02-02 07:00:00 1.6 31 Sudoeste 54 Oeste 0 -- -- 77
2019-02-02 06:00:00 1.5 42 Sudoeste 67 Sudoeste 0 -- -- 79
2019-02-02 05:00:00 1.5 41 Sudoeste 70 Sudoeste 0 -- -- 79
2019-02-02 04:00:00 1.8 39 Sudoeste 63 Sudoeste 0 -- -- 80
2019-02-02 03:00:00 1.9 35 Sudoeste 66 Sudoeste 0 -- -- 82
2019-02-02 02:00:00 2.1 39 Sudoeste 54 Sudoeste 0 -- -- 84
2019-02-02 01:00:00 2.2 36 Sudoeste 61 Sudoeste 0 -- -- 84
2019-02-02 00:00:00 2.6 44 Sudoeste 60 Sudoeste 0 -- -- 82
2019-02-01 23:00:00 2 30 Sudoeste 43 Sudoeste 0.2 -- -- 88
2019-02-01 22:00:00 2.2 27 Sudoeste 46 Sudoeste 0 -- -- 84
2019-02-01 21:00:00 2 28 Sudoeste 42 Sudoeste 0 -- -- 84
2019-02-01 20:00:00 2.5 21 Sudoeste 31 Sur 0 -- -- 84
2019-02-01 19:00:00 2.1 18 Sudoeste 32 Sudoeste 0 -- -- 87
2019-02-01 18:00:00 2.1 23 Sudoeste 43 Sudoeste 1.2 -- -- 92
2019-02-01 17:00:00 2.1 12 Oeste 39 Oeste 3 -- -- 92
2019-02-01 16:00:00 4.9 30 Sudoeste 55 Sur 1 -- -- 84
2019-02-01 15:00:00 5.4 20 Sudoeste 49 Sudoeste 0.8 -- -- 83
2019-02-01 14:00:00 6.7 26 Sur 44 Sur 0 -- -- 69
2019-02-01 13:00:00 7.6 18 Sudoeste 53 Sudoeste 0 -- -- 80
2019-02-01 12:00:00 8.4 28 Sudoeste 50 Sur 0.2 -- -- 64
2019-02-01 11:00:00 7.4 26 Sudoeste 33 Sudoeste 0 -- -- 76
2019-02-01 10:00:00 6.2 19 Sudoeste 32 Sudoeste 0 -- -- 83
2019-02-01 09:00:00 5.4 24 Sudoeste 33 Sudoeste 0 -- -- 85
2019-02-01 08:00:00 5.3 13 Sudoeste 26 Sudoeste 0 -- -- 88
2019-02-01 07:00:00 5.1 14 Sudoeste 23 Sudoeste 0 -- -- 90
2019-02-01 06:00:00 5.1 9 Sudoeste 21 Sudoeste 1.2 -- -- 90
2019-02-01 05:00:00 5.5 15 Sudoeste 39 Oeste 0.8 -- -- 89
2019-02-01 04:00:00 7.2 23 Sudoeste 44 Sudoeste 3 -- -- 86
2019-02-01 03:00:00 8.7 30 Sudoeste 57 Sur 0.6 -- -- 89
2019-02-01 02:00:00 9 41 Sur 67 Sur 0 -- -- 85
2019-02-01 01:00:00 9.4 45 Sur 70 Sur 0 -- -- 84
2019-02-01 00:00:00 9.3 45 Sur 73 Sur 0 -- -- 83
2019-01-31 23:00:00 9.4 54 Sudoeste 82 Sudoeste 0 -- -- 80
2019-01-31 22:00:00 9.8 53 Sur 82 Sudoeste 0 -- -- 78
2019-01-31 21:00:00 9.9 52 Sur 75 Sur 0 -- -- 80
2019-01-31 20:00:00 10.1 42 Sudoeste 69 Sudoeste 0 -- -- 82
2019-01-31 19:00:00 10.2 44 Sudoeste 60 Sur 0 -- -- 81
2019-01-31 18:00:00 10 39 Sur 66 Sudoeste 0 -- -- 83
2019-01-31 17:00:00 10.6 32 Sur 58 Sur 0 -- -- 81
2019-01-31 16:00:00 12 30 Sudoeste 50 Sudoeste 0 -- -- 75
2019-01-31 15:00:00 11.7 32 Sur 68 Sur 0 -- -- 77
2019-01-31 14:00:00 12.1 30 Sur 58 Sudoeste 0 -- -- 75
2019-01-31 13:00:00 11.8 39 Sudoeste 71 Sudoeste 0 -- -- 74
2019-01-31 12:00:00 10.9 36 Sur 55 Sur 0 -- -- 78
2019-01-31 11:00:00 9.2 31 Sudoeste 50 Sudoeste 0 -- -- 82
2019-01-31 10:00:00 8.5 38 Sudoeste 57 Sur 0.4 -- -- 85
2019-01-31 09:00:00 8.2 36 Sudoeste 52 Sudoeste 0 -- -- 85
2019-01-31 08:00:00 8.1 34 Sudoeste 61 Sudoeste 0.2 -- -- 87
2019-01-31 07:00:00 8.2 36 Sudoeste 53 Sudoeste 0 -- -- 86
2019-01-31 06:00:00 7.7 27 Sudoeste 51 Sudoeste 0.2 -- -- 89
2019-01-31 05:00:00 7.1 25 Sur 41 Sur 0.4 -- -- 90
2019-01-31 04:00:00 6.7 28 Sudoeste 48 Sur 0.4 -- -- 90
2019-01-31 03:00:00 6.3 29 Sur 50 Sur 0.4 -- -- 90
2019-01-31 02:00:00 5.8 23 Sudoeste 49 Sudoeste 0.4 -- -- 89
2019-01-31 01:00:00 5.3 27 Sudoeste 53 Sur 0.6 -- -- 89
2019-01-31 00:00:00 4.4 23 Sur 45 Sur 0.4 -- -- 89
2019-01-30 23:00:00 3.2 27 Sur 48 Sur 0.6 -- -- 88
2019-01-30 22:00:00 3.2 21 Sudoeste 46 Sudoeste 0.4 -- -- 86
2019-01-30 21:00:00 3.8 26 Sur 41 Sur 0 -- -- 81
2019-01-30 20:00:00 4.1 20 Sur 47 Sudoeste 0 -- -- 78
2019-01-30 19:00:00 5.8 28 Sudoeste 44 Sudoeste 0 -- -- 60
2019-01-30 18:00:00 7.4 24 Sur 40 Sur 0 -- -- 45
2019-01-30 17:00:00 8.4 27 Sudoeste 44 Sudoeste 0 -- -- 38
2019-01-30 16:00:00 9.3 21 Sudoeste 47 Oeste 0 -- -- 36
2019-01-30 15:00:00 8.9 33 Sudoeste 48 Sudoeste 0 -- -- 33
2019-01-30 14:00:00 7.9 24 Oeste 42 Oeste 0 -- -- 44
2019-01-30 13:00:00 6.6 27 Oeste 48 Sudoeste 0 -- -- 52
2019-01-30 12:00:00 6.4 28 Sudoeste 45 Sudoeste 0 -- -- 55
2019-01-30 11:00:00 5.1 31 Sudoeste 42 Sudoeste 0 -- -- 60
2019-01-30 10:00:00 3.9 21 Sudoeste 38 Sudoeste 0 -- -- 65
2019-01-30 09:00:00 1.6 11 Sudoeste 31 Sudoeste 0 -- -- 75
2019-01-30 08:00:00 1.9 23 Sudoeste 35 Sudoeste 0 -- -- 73
2019-01-30 07:00:00 2.4 19 Sudoeste 26 Sudoeste 0 -- -- 74
2019-01-30 06:00:00 2.9 14 Sudoeste 28 Oeste 0 -- -- 73
2019-01-30 05:00:00 3.3 17 Sudoeste 29 Sudoeste 0 -- -- 74
2019-01-30 04:00:00 3.5 10 Sudoeste 30 Oeste 0 -- -- 73
2019-01-30 03:00:00 3.6 15 Sudoeste 32 Oeste 0 -- -- 70
2019-01-30 02:00:00 3.8 19 Sudoeste 33 Sudoeste 0 -- -- 70
2019-01-30 01:00:00 4.3 24 Sudoeste 53 Oeste 0 -- -- 66
2019-01-30 00:00:00 5 37 Oeste 69 Oeste 0 -- -- 59
2019-01-29 23:00:00 5.1 40 Oeste 62 Oeste 0 -- -- 65
2019-01-29 22:00:00 5.3 42 Oeste 67 Sudoeste 0 -- -- 73
2019-01-29 21:00:00 6.1 42 Oeste 65 Sudoeste 0 -- -- 72
2019-01-29 20:00:00 6.5 40 Sudoeste 63 Sudoeste 0 -- -- 73
2019-01-29 19:00:00 6.8 37 Sudoeste 55 Sudoeste 0 -- -- 73
2019-01-29 18:00:00 7.7 40 Sudoeste 59 Sudoeste 0 -- -- 73
2019-01-29 17:00:00 8.7 39 Sudoeste 59 Sudoeste 0 -- -- 68
2019-01-29 16:00:00 9.4 42 Sudoeste 57 Sudoeste 0 -- -- 62
2019-01-29 15:00:00 10.3 42 Sudoeste 66 Sudoeste 0 -- -- 57
2019-01-29 14:00:00 10.1 28 Sudoeste 55 Sudoeste 0 -- -- 59
2019-01-29 13:00:00 8.2 26 Sur 39 Sur 0 -- -- 62
2019-01-29 12:00:00 5.4 16 Sudoeste 26 Sudoeste 0 -- -- 67
2019-01-29 11:00:00 4.2 13 Sudoeste 23 Sudoeste 0 -- -- 71
2019-01-29 10:00:00 3.2 13 Sudoeste 17 Oeste 0 -- -- 73
2019-01-29 09:00:00 1.4 8 Sudoeste 19 Sudoeste 0 -- -- 78
2019-01-29 08:00:00 1.5 14 Sudoeste 21 Sudoeste 0 -- -- 79
2019-01-29 07:00:00 0.5 9 Sudoeste 19 Sudoeste 0 -- -- 81
2019-01-29 06:00:00 0.7 16 Sudoeste 23 Sudoeste 0 -- -- 81
2019-01-29 05:00:00 0.4 19 Sudoeste 24 Sudoeste 0 -- -- 83
2019-01-29 04:00:00 0.6 16 Sudoeste 26 Sudoeste 0 -- -- 84
2019-01-29 03:00:00 1 12 Sudoeste 31 Sudoeste 0 -- -- 81
2019-01-29 02:00:00 1.2 18 Sudoeste 27 Sudoeste 0 -- -- 81
2019-01-29 01:00:00 1.1 15 Sudoeste 23 Sudoeste 0 -- -- 83
2019-01-29 00:00:00 1.3 7 Sudoeste 22 Sudoeste 0 -- -- 80
2019-01-28 23:00:00 2.1 10 Oeste 21 Sudoeste 0 -- -- 77
2019-01-28 22:00:00 2.2 8 Sudoeste 17 Oeste 0 -- -- 77
2019-01-28 21:00:00 3.2 9 Oeste 22 Sudoeste 0 -- -- 75
2019-01-28 20:00:00 4.3 11 Oeste 26 Sudoeste 0 -- -- 71
2019-01-28 19:00:00 5 4 Sudoeste 14 Oeste 0 -- -- 74
2019-01-28 18:00:00 6.9 13 Sur 28 Sur 0 -- -- 72
2019-01-28 17:00:00 7.8 14 Sudoeste 32 Sudoeste 0 -- -- 72
2019-01-28 16:00:00 8.6 23 Oeste 59 Oeste 0 -- -- 64
2019-01-28 15:00:00 9.2 30 Oeste 71 Oeste 0 -- -- 61
2019-01-28 14:00:00 9.1 36 Oeste 61 Sudoeste 0 -- -- 61
2019-01-28 13:00:00 7.7 39 Oeste 66 Oeste 0 -- -- 66
2019-01-28 12:00:00 7.7 42 Oeste 68 Oeste 0 -- -- 62
2019-01-28 11:00:00 6.8 48 Oeste 77 Sudoeste 0 -- -- 67
2019-01-28 10:00:00 5.8 40 Oeste 65 Oeste 0 -- -- 71
2019-01-28 09:00:00 4.4 42 Sudoeste 70 Oeste 0 -- -- 73
2019-01-28 08:00:00 4 40 Sudoeste 61 Sudoeste 0 -- -- 71
2019-01-28 07:00:00 2.4 31 Sudoeste 52 Sudoeste 0 -- -- 76
2019-01-28 06:00:00 1.4 24 Sudoeste 43 Sudoeste 0 -- -- 77
2019-01-28 05:00:00 1.3 26 Sudoeste 42 Sudoeste 0 -- -- 76
2019-01-28 04:00:00 1.1 11 Sur 20 Sur 0 -- -- 79
2019-01-28 03:00:00 0.4 5 Sur 18 Sur -- -- -- 81
2019-01-28 02:00:00 -0.7 0 Calma 15 Sudoeste 0 -- -- 79
2019-01-28 01:00:00 -0.1 5 Sudoeste 12 Sudoeste 0 -- -- 79
2019-01-28 00:00:00 0 10 Oeste 16 Sudoeste 0 -- -- 80
2019-01-27 23:00:00 0.3 12 Oeste 15 Oeste 0 -- -- 78
2019-01-27 22:00:00 1.1 8 Oeste 14 Sudoeste 0 -- -- 75
2019-01-27 21:00:00 1.9 6 Sudoeste 9 Oeste 0 -- -- 72
2019-01-27 20:00:00 4.4 5 Sudoeste 29 Oeste 0 -- -- 63
2019-01-27 19:00:00 5.7 16 Oeste 33 Oeste 0 -- -- 61
2019-01-27 18:00:00 6.7 11 Sudoeste 34 Sudoeste 0 -- -- 56
2019-01-27 17:00:00 7.4 19 Sudoeste 40 Sudoeste 0 -- -- 54
2019-01-27 16:00:00 8.3 24 Oeste 50 Oeste 0 -- -- 49
2019-01-27 15:00:00 8.5 29 Sudoeste 50 Sudoeste 0 -- -- 52
2019-01-27 14:00:00 8.6 31 Sudoeste 46 Oeste 0 -- -- 53
2019-01-27 13:00:00 8 27 Oeste 46 Sudoeste 0 -- -- 60
2019-01-27 12:00:00 6 28 Sudoeste 41 Sudoeste 0 -- -- 71
2019-01-27 11:00:00 4.6 28 Sudoeste 46 Oeste 0 -- -- 78
2019-01-27 10:00:00 5.1 25 Oeste 44 Sudoeste 0 -- -- 74
2019-01-27 09:00:00 4.4 13 Sudoeste 24 Sudoeste 0 -- -- 78
2019-01-27 08:00:00 4.3 17 Sudoeste 30 Sudoeste 0 -- -- 75
2019-01-27 07:00:00 3.8 15 Sudoeste 22 Sudoeste 0 -- -- 74
2019-01-27 06:00:00 1.4 2 Oeste 11 Oeste 0 -- -- 85
2019-01-27 05:00:00 1.8 10 Sudoeste 17 Sudoeste 0 -- -- 83
2019-01-27 04:00:00 2.4 4 Sudoeste 12 Sudoeste 0 -- -- 80
2019-01-27 03:00:00 2.5 5 Sudoeste 15 Noroeste 0 -- -- 79
2019-01-27 02:00:00 3.8 12 Sudoeste 18 Sudoeste 0 -- -- 76
2019-01-27 01:00:00 3.8 13 Oeste 17 Sudoeste 0 -- -- 77
2019-01-27 00:00:00 5.1 12 Oeste 17 Oeste 0 -- -- 70
2019-01-26 23:00:00 5.4 8 Oeste 14 Sudoeste 0 -- -- 70
2019-01-26 22:00:00 4.5 10 Oeste 14 Sudoeste 0 -- -- 73
2019-01-26 21:00:00 5.2 12 Oeste 16 Oeste 0 -- -- 69
2019-01-26 20:00:00 6.9 9 Sudoeste 24 Sudoeste 0 -- -- 62
2019-01-26 19:00:00 9 15 Sudoeste 22 Sudoeste 0 -- -- 53
2019-01-26 18:00:00 12.4 16 Sudoeste 28 Sudoeste 0 -- -- 54
2019-01-26 17:00:00 15.8 12 Oeste 23 Oeste 0 -- -- 42
2019-01-26 16:00:00 16.3 13 Oeste 24 Oeste 0 -- -- 40
2019-01-26 15:00:00 15 16 Oeste 29 Sudoeste 0 -- -- 38
2019-01-26 14:00:00 12.9 4 Norte 13 Nordeste 0 -- -- 53
2019-01-26 13:00:00 10.8 5 Norte 20 Sudoeste 0 -- -- 62
2019-01-26 12:00:00 9.3 5 Sudoeste 19 Sudoeste 0 -- -- 69
2019-01-26 11:00:00 6.2 14 Sudoeste 19 Sudoeste 0 -- -- 78
2019-01-26 10:00:00 1.7 0 Calma 5 Sudoeste 0 -- -- 93
2019-01-26 09:00:00 -2.1 2 Sudoeste 10 Sudoeste 0 -- -- 92
2019-01-26 08:00:00 -2.3 0 Calma 10 Sudoeste 0 -- -- 90
2019-01-26 07:00:00 -1.3 7 Sudoeste 11 Sudoeste 0 -- -- 90
2019-01-26 06:00:00 0.2 5 Sudoeste 18 Oeste 0 -- -- 89
2019-01-26 05:00:00 -0.1 11 Oeste 17 Oeste 0 -- -- 93
2019-01-26 04:00:00 0.2 6 Sudoeste 13 Oeste 0 -- -- 89
2019-01-26 03:00:00 -0.6 8 Sudoeste 13 Sur 0 -- -- 88
2019-01-26 02:00:00 0.1 12 Sudoeste 17 Sudoeste 0 -- -- 88
2019-01-26 01:00:00 0.5 5 Sudoeste 12 Sudoeste 0 -- -- 86
2019-01-26 00:00:00 1.9 10 Oeste 15 Oeste 0 -- -- 86
2019-01-25 23:00:00 2.1 7 Sudoeste 13 Sudoeste 0 -- -- 83
2019-01-25 22:00:00 4.6 4 Noroeste 19 Oeste 0 -- -- 76
2019-01-25 21:00:00 5.2 8 Noroeste 14 Noroeste 0 -- -- 75
2019-01-25 20:00:00 6.2 5 Oeste 13 Noroeste 0 -- -- 70
2019-01-25 19:00:00 7.6 4 Nordeste 29 Noroeste 0 -- -- 63
2019-01-25 18:00:00 9.8 6 Norte 27 Norte 0 -- -- 56
2019-01-25 17:00:00 13 16 Oeste 33 Sudoeste 0 -- -- 55
2019-01-25 16:00:00 11.9 11 Oeste 26 Oeste 0 -- -- 56
2019-01-25 15:00:00 13.4 17 Oeste 31 Norte 0 -- -- 50
2019-01-25 14:00:00 12.8 17 Norte 31 Norte 0 -- -- 50
2019-01-25 13:00:00 12.5 18 Noroeste 40 Noroeste 0 -- -- 54
2019-01-25 12:00:00 10.3 17 Oeste 30 Oeste 0 -- -- 65
2019-01-25 11:00:00 10.2 13 Noroeste 28 Noroeste 0 -- -- 66
2019-01-25 10:00:00 7.7 14 Oeste 26 Oeste 0 -- -- 76
2019-01-25 09:00:00 6 10 Oeste 18 Oeste 0 -- -- 80
2019-01-25 08:00:00 5.3 12 Oeste 21 Oeste 0 -- -- 84
2019-01-25 07:00:00 5 9 Sudoeste 21 Oeste 0 -- -- 83
2019-01-25 06:00:00 6 11 Oeste 22 Oeste 0 -- -- 81
2019-01-25 05:00:00 6.6 9 Oeste 21 Oeste 0 -- -- 79
2019-01-25 04:00:00 7.4 13 Oeste 20 Oeste 0 -- -- 79
2019-01-25 03:00:00 6.8 5 Oeste 9 Oeste 0 -- -- 83
2019-01-25 02:00:00 6.7 3 Sudoeste 6 Sudeste 0 -- -- 82
2019-01-25 01:00:00 7.3 4 Sudoeste 19 Norte 0 -- -- 76
2019-01-25 00:00:00 7.3 12 Norte 18 Norte 0 -- -- 76
2019-01-24 23:00:00 7.2 3 Noroeste 10 Oeste 0 -- -- 76
2019-01-24 22:00:00 6.9 3 Oeste 8 Oeste 0 -- -- 75
2019-01-24 21:00:00 7.3 4 Norte 20 Noroeste 0 -- -- 72
2019-01-24 20:00:00 7.4 12 Norte 24 Norte 0 -- -- 71
2019-01-24 19:00:00 7.6 13 Norte 29 Norte 0 -- -- 71
2019-01-24 18:00:00 8.2 12 Norte 24 Norte 0 -- -- 67
2019-01-24 17:00:00 8.7 14 Norte 33 Nordeste 0 -- -- 64
2019-01-24 16:00:00 9.2 17 Noroeste 31 Norte 0 -- -- 61
2019-01-24 15:00:00 9.9 16 Norte 28 Norte 0 -- -- 59
2019-01-24 14:00:00 9.9 15 Norte 25 Norte 0 -- -- 59
2019-01-24 13:00:00 7 12 Norte 23 Nordeste 0 -- -- 71
2019-01-24 12:00:00 5.9 11 Nordeste 20 Nordeste 0 -- -- 78
2019-01-24 11:00:00 6.4 7 Norte 22 Oeste 0 -- -- 81
2019-01-24 10:00:00 6.2 12 Oeste 22 Noroeste 0 -- -- 81
2019-01-24 09:00:00 5.6 10 Oeste 33 Oeste 0 -- -- 81
2019-01-24 08:00:00 5.9 19 Oeste 38 Sudoeste 0 -- -- 80
2019-01-24 07:00:00 5.9 24 Oeste 46 Oeste 0 -- -- 79
2019-01-24 06:00:00 5.9 23 Oeste 47 Oeste 0 -- -- 80
2019-01-24 05:00:00 6 25 Oeste 48 Sudoeste 0 -- -- 79
2019-01-24 04:00:00 5.9 27 Oeste 52 Oeste 0 -- -- 80
2019-01-24 03:00:00 6.4 33 Oeste 55 Oeste 0 -- -- 75
2019-01-24 02:00:00 5.9 32 Oeste 50 Oeste 0 -- -- 77
2019-01-24 01:00:00 6.1 28 Oeste 63 Sudoeste 0 -- -- 78
2019-01-24 00:00:00 6.5 37 Oeste 59 Oeste 0 -- -- 77